sensor_id;sensor_type;location;lat;lon;timestamp;pressure;altitude;pressure_sealevel;temperature;humidity
18795;BME280;29610;49.022;12.114;2023-02-20T00:01:50;98643.66;;;8.97;100.00
18795;BME280;29610;49.022;12.114;2023-02-20T00:04:19;98639.72;;;8.84;100.00
18795;BME280;29610;49.022;12.114;2023-02-20T00:06:48;98636.97;;;8.89;100.00
18795;BME280;29610;49.022;12.114;2023-02-20T00:09:18;98641.41;;;8.80;100.00
18795;BME280;29610;49.022;12.114;2023-02-20T00:11:46;98641.06;;;8.87;100.00
18795;BME280;29610;49.022;12.114;2023-02-20T00:14:15;98646.25;;;8.83;100.00
18795;BME280;29610;49.022;12.114;2023-02-20T00:16:45;98646.81;;;8.80;100.00
18795;BME280;29610;49.022;12.114;2023-02-20T00:19:15;98647.28;;;8.87;100.00
18795;BME280;29610;49.022;12.114;2023-02-20T00:21:46;98648.28;;;8.97;100.00
18795;BME280;29610;49.022;12.114;2023-02-20T00:24:18;98647.91;;;8.79;100.00
18795;BME280;29610;49.022;12.114;2023-02-20T00:26:47;98648.38;;;8.86;100.00
18795;BME280;29610;49.022;12.114;2023-02-20T00:29:18;98651.78;;;8.97;100.00
18795;BME280;29610;49.022;12.114;2023-02-20T00:31:51;98649.25;;;9.06;100.00
18795;BME280;29610;49.022;12.114;2023-02-20T00:34:21;98648.44;;;9.05;100.00
18795;BME280;29610;49.022;12.114;2023-02-20T00:36:49;98646.31;;;9.02;100.00
18795;BME280;29610;49.022;12.114;2023-02-20T00:39:20;98650.91;;;9.02;100.00
18795;BME280;29610;49.022;12.114;2023-02-20T00:41:48;98644.41;;;9.03;100.00
18795;BME280;29610;49.022;12.114;2023-02-20T00:44:18;98641.06;;;9.11;100.00
18795;BME280;29610;49.022;12.114;2023-02-20T00:46:47;98641.03;;;9.16;100.00
18795;BME280;29610;49.022;12.114;2023-02-20T00:49:16;98637.72;;;9.19;100.00
18795;BME280;29610;49.022;12.114;2023-02-20T00:51:45;98646.31;;;9.26;100.00
18795;BME280;29610;49.022;12.114;2023-02-20T00:54:15;98642.03;;;9.20;100.00
18795;BME280;29610;49.022;12.114;2023-02-20T00:56:46;98648.38;;;9.10;100.00
18795;BME280;29610;49.022;12.114;2023-02-20T00:59:15;98655.16;;;9.13;100.00
18795;BME280;29610;49.022;12.114;2023-02-20T01:01:43;98649.31;;;9.24;100.00
18795;BME280;29610;49.022;12.114;2023-02-20T01:04:12;98643.59;;;9.26;100.00
18795;BME280;29610;49.022;12.114;2023-02-20T01:06:41;98638.75;;;9.23;100.00
18795;BME280;29610;49.022;12.114;2023-02-20T01:09:11;98639.09;;;9.16;100.00
18795;BME280;29610;49.022;12.114;2023-02-20T01:11:41;98638.22;;;9.21;100.00
18795;BME280;29610;49.022;12.114;2023-02-20T01:14:12;98640.88;;;9.26;100.00
18795;BME280;29610;49.022;12.114;2023-02-20T01:16:45;98635.69;;;9.29;100.00
18795;BME280;29610;49.022;12.114;2023-02-20T01:19:14;98632.88;;;9.16;100.00
18795;BME280;29610;49.022;12.114;2023-02-20T01:21:43;98628.81;;;9.13;100.00
18795;BME280;29610;49.022;12.114;2023-02-20T01:24:12;98626.88;;;9.19;100.00
18795;BME280;29610;49.022;12.114;2023-02-20T01:26:41;98627.97;;;9.18;100.00
18795;BME280;29610;49.022;12.114;2023-02-20T01:29:11;98624.75;;;9.16;100.00
18795;BME280;29610;49.022;12.114;2023-02-20T01:31:47;98619.75;;;9.23;100.00
18795;BME280;29610;49.022;12.114;2023-02-20T01:34:17;98626.28;;;9.22;100.00
18795;BME280;29610;49.022;12.114;2023-02-20T01:36:47;98627.47;;;9.16;100.00
18795;BME280;29610;49.022;12.114;2023-02-20T01:39:17;98623.75;;;9.07;100.00
18795;BME280;29610;49.022;12.114;2023-02-20T01:41:48;98633.47;;;9.13;100.00
18795;BME280;29610;49.022;12.114;2023-02-20T01:44:23;98638.53;;;8.96;100.00
18795;BME280;29610;49.022;12.114;2023-02-20T01:46:53;98645.44;;;9.07;100.00
18795;BME280;29610;49.022;12.114;2023-02-20T01:49:34;98641.50;;;9.18;100.00
18795;BME280;29610;49.022;12.114;2023-02-20T01:52:09;98637.09;;;9.27;100.00
18795;BME280;29610;49.022;12.114;2023-02-20T01:54:41;98635.44;;;9.26;100.00
18795;BME280;29610;49.022;12.114;2023-02-20T01:57:16;98633.16;;;9.14;100.00
18795;BME280;29610;49.022;12.114;2023-02-20T01:59:49;98635.81;;;9.19;100.00
18795;BME280;29610;49.022;12.114;2023-02-20T02:02:22;98624.47;;;9.17;100.00
18795;BME280;29610;49.022;12.114;2023-02-20T02:04:51;98624.56;;;9.07;100.00
18795;BME280;29610;49.022;12.114;2023-02-20T02:07:23;98632.00;;;9.20;100.00
18795;BME280;29610;49.022;12.114;2023-02-20T02:09:56;98623.88;;;9.20;100.00
18795;BME280;29610;49.022;12.114;2023-02-20T02:12:28;98610.84;;;9.22;100.00
18795;BME280;29610;49.022;12.114;2023-02-20T02:14:58;98612.50;;;9.18;100.00
18795;BME280;29610;49.022;12.114;2023-02-20T02:17:49;98609.31;;;9.11;100.00
18795;BME280;29610;49.022;12.114;2023-02-20T02:34:18;98615.50;;;9.17;100.00
18795;BME280;29610;49.022;12.114;2023-02-20T02:37:02;98614.75;;;9.11;100.00
18795;BME280;29610;49.022;12.114;2023-02-20T02:39:43;98618.16;;;9.22;100.00
18795;BME280;29610;49.022;12.114;2023-02-20T02:42:26;98601.81;;;9.03;100.00
18795;BME280;29610;49.022;12.114;2023-02-20T02:45:07;98599.63;;;9.05;100.00
18795;BME280;29610;49.022;12.114;2023-02-20T02:47:48;98608.47;;;8.92;100.00
18795;BME280;29610;49.022;12.114;2023-02-20T02:50:24;98606.97;;;9.05;100.00
18795;BME280;29610;49.022;12.114;2023-02-20T02:52:57;98597.41;;;9.12;100.00
18795;BME280;29610;49.022;12.114;2023-02-20T02:55:30;98597.78;;;9.01;100.00
18795;BME280;29610;49.022;12.114;2023-02-20T02:58:00;98607.13;;;9.13;100.00
18795;BME280;29610;49.022;12.114;2023-02-20T03:00:35;98598.84;;;9.05;100.00
18795;BME280;29610;49.022;12.114;2023-02-20T03:03:10;98600.34;;;9.16;100.00
18795;BME280;29610;49.022;12.114;2023-02-20T03:05:48;98596.28;;;9.13;100.00
18795;BME280;29610;49.022;12.114;2023-02-20T03:08:28;98595.31;;;9.04;100.00
18795;BME280;29610;49.022;12.114;2023-02-20T03:11:05;98591.75;;;9.09;100.00
18795;BME280;29610;49.022;12.114;2023-02-20T03:13:38;98598.63;;;9.01;100.00
18795;BME280;29610;49.022;12.114;2023-02-20T03:16:33;98597.78;;;9.01;100.00
18795;BME280;29610;49.022;12.114;2023-02-20T03:19:09;98602.34;;;9.05;100.00
18795;BME280;29610;49.022;12.114;2023-02-20T03:21:44;98596.97;;;9.00;100.00
18795;BME280;29610;49.022;12.114;2023-02-20T03:24:18;98602.13;;;9.02;100.00
18795;BME280;29610;49.022;12.114;2023-02-20T03:26:49;98601.38;;;8.96;100.00
18795;BME280;29610;49.022;12.114;2023-02-20T03:29:23;98593.69;;;8.79;100.00
18795;BME280;29610;49.022;12.114;2023-02-20T03:32:00;98605.94;;;8.77;100.00
18795;BME280;29610;49.022;12.114;2023-02-20T03:34:49;98609.31;;;8.87;100.00
18795;BME280;29610;49.022;12.114;2023-02-20T03:37:39;98603.91;;;8.87;100.00
18795;BME280;29610;49.022;12.114;2023-02-20T03:40:32;98603.84;;;8.93;100.00
18795;BME280;29610;49.022;12.114;2023-02-20T03:43:19;98602.25;;;8.92;100.00
18795;BME280;29610;49.022;12.114;2023-02-20T03:46:00;98602.13;;;9.02;100.00
18795;BME280;29610;49.022;12.114;2023-02-20T03:48:37;98610.38;;;8.92;100.00
18795;BME280;29610;49.022;12.114;2023-02-20T03:51:08;98598.72;;;8.91;100.00
18795;BME280;29610;49.022;12.114;2023-02-20T03:53:51;98611.06;;;9.02;100.00
18795;BME280;29610;49.022;12.114;2023-02-20T03:56:25;98609.47;;;9.01;100.00
18795;BME280;29610;49.022;12.114;2023-02-20T03:59:03;98605.63;;;9.02;100.00
18795;BME280;29610;49.022;12.114;2023-02-20T04:01:35;98608.75;;;9.14;100.00
18795;BME280;29610;49.022;12.114;2023-02-20T04:04:10;98609.69;;;9.05;100.00
18795;BME280;29610;49.022;12.114;2023-02-20T04:06:44;98615.50;;;9.17;100.00
18795;BME280;29610;49.022;12.114;2023-02-20T04:09:20;98618.28;;;9.12;100.00
18795;BME280;29610;49.022;12.114;2023-02-20T04:11:58;98614.59;;;9.03;100.00
18795;BME280;29610;49.022;12.114;2023-02-20T04:14:30;98614.25;;;9.09;100.00
18795;BME280;29610;49.022;12.114;2023-02-20T04:17:06;98611.28;;;9.06;100.00
18795;BME280;29610;49.022;12.114;2023-02-20T04:19:37;98618.63;;;9.05;100.00
18795;BME280;29610;49.022;12.114;2023-02-20T04:22:12;98614.53;;;9.08;100.00
18795;BME280;29610;49.022;12.114;2023-02-20T04:24:49;98614.84;;;9.06;100.00
18795;BME280;29610;49.022;12.114;2023-02-20T04:27:21;98620.97;;;9.12;100.00
18795;BME280;29610;49.022;12.114;2023-02-20T04:29:54;98616.78;;;9.01;100.00
18795;BME280;29610;49.022;12.114;2023-02-20T04:32:23;98608.81;;;9.09;100.00
18795;BME280;29610;49.022;12.114;2023-02-20T04:34:53;98609.41;;;9.06;100.00
18795;BME280;29610;49.022;12.114;2023-02-20T04:37:22;98612.03;;;9.11;100.00
18795;BME280;29610;49.022;12.114;2023-02-20T04:39:53;98612.13;;;9.06;100.00
18795;BME280;29610;49.022;12.114;2023-02-20T04:42:23;98608.47;;;9.16;100.00
18795;BME280;29610;49.022;12.114;2023-02-20T04:44:53;98616.50;;;9.02;100.00
18795;BME280;29610;49.022;12.114;2023-02-20T04:47:22;98623.41;;;9.13;100.00
18795;BME280;29610;49.022;12.114;2023-02-20T04:49:50;98632.31;;;9.19;100.00
18795;BME280;29610;49.022;12.114;2023-02-20T04:52:22;98625.53;;;9.16;100.00
18795;BME280;29610;49.022;12.114;2023-02-20T04:54:52;98623.34;;;9.18;100.00
18795;BME280;29610;49.022;12.114;2023-02-20T04:57:23;98614.53;;;9.08;100.00
18795;BME280;29610;49.022;12.114;2023-02-20T04:59:52;98614.31;;;9.04;100.00
18795;BME280;29610;49.022;12.114;2023-02-20T05:02:20;98613.97;;;9.11;100.00
18795;BME280;29610;49.022;12.114;2023-02-20T05:04:49;98624.69;;;8.97;100.00
18795;BME280;29610;49.022;12.114;2023-02-20T05:07:18;98632.16;;;9.05;100.00
18795;BME280;29610;49.022;12.114;2023-02-20T05:09:46;98620.53;;;9.05;100.00
18795;BME280;29610;49.022;12.114;2023-02-20T05:12:15;98621.03;;;9.07;100.00
18795;BME280;29610;49.022;12.114;2023-02-20T05:14:45;98619.66;;;9.09;100.00
18795;BME280;29610;49.022;12.114;2023-02-20T05:17:14;98622.03;;;9.16;100.00
18795;BME280;29610;49.022;12.114;2023-02-20T05:19:45;98621.84;;;9.07;100.00
18795;BME280;29610;49.022;12.114;2023-02-20T05:22:14;98627.81;;;9.09;100.00
18795;BME280;29610;49.022;12.114;2023-02-20T05:24:50;98638.31;;;9.16;100.00
18795;BME280;29610;49.022;12.114;2023-02-20T05:27:21;98637.66;;;9.00;100.00
18795;BME280;29610;49.022;12.114;2023-02-20T05:29:54;98643.88;;;9.01;100.00
18795;BME280;29610;49.022;12.114;2023-02-20T05:32:26;98645.44;;;9.07;100.00
18795;BME280;29610;49.022;12.114;2023-02-20T05:34:56;98653.63;;;9.02;100.00
18795;BME280;29610;49.022;12.114;2023-02-20T05:37:26;98652.31;;;8.99;100.00
18795;BME280;29610;49.022;12.114;2023-02-20T05:39:55;98658.22;;;9.06;100.00
18795;BME280;29610;49.022;12.114;2023-02-20T05:42:24;98653.75;;;8.92;100.00
18795;BME280;29610;49.022;12.114;2023-02-20T05:44:54;98660.22;;;8.96;100.00
18795;BME280;29610;49.022;12.114;2023-02-20T05:47:22;98649.06;;;8.97;100.00
18795;BME280;29610;49.022;12.114;2023-02-20T05:49:51;98645.50;;;9.02;100.00
18795;BME280;29610;49.022;12.114;2023-02-20T05:52:19;98645.00;;;9.00;100.00
18795;BME280;29610;49.022;12.114;2023-02-20T05:54:48;98650.91;;;9.02;100.00
18795;BME280;29610;49.022;12.114;2023-02-20T05:57:17;98652.56;;;9.03;100.00
18795;BME280;29610;49.022;12.114;2023-02-20T05:59:45;98657.44;;;9.01;100.00
18795;BME280;29610;49.022;12.114;2023-02-20T06:02:16;98660.25;;;8.90;100.00
18795;BME280;29610;49.022;12.114;2023-02-20T06:04:44;98653.72;;;8.97;100.00
18795;BME280;29610;49.022;12.114;2023-02-20T06:07:13;98651.69;;;8.83;100.00
18795;BME280;29610;49.022;12.114;2023-02-20T06:09:42;98651.13;;;8.81;100.00
18795;BME280;29610;49.022;12.114;2023-02-20T06:12:12;98646.53;;;8.82;100.00
18795;BME280;29610;49.022;12.114;2023-02-20T06:14:41;98643.91;;;8.72;100.00
18795;BME280;29610;49.022;12.114;2023-02-20T06:17:10;98649.47;;;8.85;100.00
18795;BME280;29610;49.022;12.114;2023-02-20T06:19:40;98653.81;;;8.86;100.00
18795;BME280;29610;49.022;12.114;2023-02-20T06:22:09;98649.06;;;8.73;100.00
18795;BME280;29610;49.022;12.114;2023-02-20T06:24:38;98648.22;;;8.73;100.00
18795;BME280;29610;49.022;12.114;2023-02-20T06:27:07;98654.19;;;8.75;100.00
18795;BME280;29610;49.022;12.114;2023-02-20T06:29:35;98656.75;;;8.90;100.00
18795;BME280;29610;49.022;12.114;2023-02-20T06:32:05;98663.69;;;9.01;100.00
18795;BME280;29610;49.022;12.114;2023-02-20T06:34:34;98657.16;;;9.02;100.00
18795;BME280;29610;49.022;12.114;2023-02-20T06:37:04;98668.19;;;9.11;100.00
18795;BME280;29610;49.022;12.114;2023-02-20T06:39:33;98675.28;;;9.07;100.00
18795;BME280;29610;49.022;12.114;2023-02-20T06:42:01;98680.25;;;9.00;100.00
18795;BME280;29610;49.022;12.114;2023-02-20T06:44:30;98682.75;;;8.91;100.00
18795;BME280;29610;49.022;12.114;2023-02-20T06:46:59;98681.56;;;9.02;100.00
18795;BME280;29610;49.022;12.114;2023-02-20T06:49:28;98685.38;;;9.01;100.00
18795;BME280;29610;49.022;12.114;2023-02-20T06:51:57;98685.19;;;9.16;100.00
18795;BME280;29610;49.022;12.114;2023-02-20T06:54:27;98692.13;;;9.27;100.00
18795;BME280;29610;49.022;12.114;2023-02-20T06:56:56;98687.22;;;9.29;100.00
18795;BME280;29610;49.022;12.114;2023-02-20T06:59:25;98684.75;;;9.33;100.00
18795;BME280;29610;49.022;12.114;2023-02-20T07:01:54;98669.09;;;9.25;100.00
18795;BME280;29610;49.022;12.114;2023-02-20T07:04:25;98683.63;;;9.34;100.00
18795;BME280;29610;49.022;12.114;2023-02-20T07:06:54;98677.47;;;9.28;100.00
18795;BME280;29610;49.022;12.114;2023-02-20T07:09:23;98674.06;;;9.18;100.00
18795;BME280;29610;49.022;12.114;2023-02-20T07:11:55;98676.97;;;9.26;100.00
18795;BME280;29610;49.022;12.114;2023-02-20T07:14:24;98677.00;;;9.45;100.00
18795;BME280;29610;49.022;12.114;2023-02-20T07:16:53;98674.91;;;9.37;100.00
18795;BME280;29610;49.022;12.114;2023-02-20T07:19:22;98669.38;;;9.47;100.00
18795;BME280;29610;49.022;12.114;2023-02-20T07:21:50;98674.22;;;9.50;100.00
18795;BME280;29610;49.022;12.114;2023-02-20T07:24:19;98688.91;;;9.25;100.00
18795;BME280;29610;49.022;12.114;2023-02-20T07:26:48;98675.97;;;9.41;100.00
18795;BME280;29610;49.022;12.114;2023-02-20T07:29:18;98665.50;;;9.53;100.00
18795;BME280;29610;49.022;12.114;2023-02-20T07:31:46;98662.84;;;9.48;100.00
18795;BME280;29610;49.022;12.114;2023-02-20T07:34:15;98671.56;;;9.68;100.00
18795;BME280;29610;49.022;12.114;2023-02-20T07:36:45;98662.19;;;9.79;100.00
18795;BME280;29610;49.022;12.114;2023-02-20T07:39:13;98671.63;;;9.82;100.00
18795;BME280;29610;49.022;12.114;2023-02-20T07:41:42;98660.47;;;9.83;100.00
18795;BME280;29610;49.022;12.114;2023-02-20T07:44:35;98661.59;;;9.82;100.00
18795;BME280;29610;49.022;12.114;2023-02-20T07:47:04;98670.84;;;10.00;100.00
18795;BME280;29610;49.022;12.114;2023-02-20T07:49:33;98656.09;;;10.06;100.00
18795;BME280;29610;49.022;12.114;2023-02-20T07:52:02;98656.75;;;10.16;100.00
18795;BME280;29610;49.022;12.114;2023-02-20T07:54:30;98664.13;;;10.16;100.00
18795;BME280;29610;49.022;12.114;2023-02-20T07:56:59;98658.56;;;10.02;100.00
18795;BME280;29610;49.022;12.114;2023-02-20T07:59:28;98670.84;;;10.00;100.00
18795;BME280;29610;49.022;12.114;2023-02-20T08:01:58;98671.06;;;10.03;100.00
18795;BME280;29610;49.022;12.114;2023-02-20T08:04:26;98662.59;;;10.10;100.00
18795;BME280;29610;49.022;12.114;2023-02-20T08:06:55;98665.69;;;9.98;100.00
18795;BME280;29610;49.022;12.114;2023-02-20T08:09:24;98670.22;;;10.08;100.00
18795;BME280;29610;49.022;12.114;2023-02-20T08:11:52;98663.56;;;9.95;100.00
18795;BME280;29610;49.022;12.114;2023-02-20T08:14:21;98647.06;;;9.92;100.00
18795;BME280;29610;49.022;12.114;2023-02-20T08:16:49;98640.66;;;10.01;100.00
18795;BME280;29610;49.022;12.114;2023-02-20T08:19:19;98649.72;;;9.97;100.00
18795;BME280;29610;49.022;12.114;2023-02-20T08:21:48;98656.09;;;10.06;100.00
18795;BME280;29610;49.022;12.114;2023-02-20T08:24:17;98662.19;;;10.16;100.00
18795;BME280;29610;49.022;12.114;2023-02-20T08:26:47;98647.94;;;9.87;100.00
18795;BME280;29610;49.022;12.114;2023-02-20T08:29:16;98642.66;;;9.96;100.00
18795;BME280;29610;49.022;12.114;2023-02-20T08:31:45;98643.59;;;9.86;100.00
18795;BME280;29610;49.022;12.114;2023-02-20T08:34:14;98651.91;;;9.95;100.00
18795;BME280;29610;49.022;12.114;2023-02-20T08:36:44;98650.41;;;10.02;100.00
18795;BME280;29610;49.022;12.114;2023-02-20T08:39:12;98660.50;;;10.20;100.00
18795;BME280;29610;49.022;12.114;2023-02-20T08:41:42;98651.84;;;10.18;100.00
18795;BME280;29610;49.022;12.114;2023-02-20T08:44:12;98639.63;;;10.34;100.00
18795;BME280;29610;49.022;12.114;2023-02-20T08:46:46;98635.16;;;10.25;100.00
18795;BME280;29610;49.022;12.114;2023-02-20T08:49:19;98633.66;;;10.51;100.00
18795;BME280;29610;49.022;12.114;2023-02-20T08:51:55;98618.56;;;10.59;100.00
18795;BME280;29610;49.022;12.114;2023-02-20T08:54:27;98620.13;;;10.78;100.00
18795;BME280;29610;49.022;12.114;2023-02-20T08:56:56;98626.47;;;10.87;100.00
18795;BME280;29610;49.022;12.114;2023-02-20T08:59:24;98625.47;;;10.97;100.00
18795;BME280;29610;49.022;12.114;2023-02-20T09:01:53;98622.97;;;11.27;100.00
18795;BME280;29610;49.022;12.114;2023-02-20T09:04:22;98631.19;;;11.49;100.00
18795;BME280;29610;49.022;12.114;2023-02-20T09:06:51;98628.97;;;11.78;100.00
18795;BME280;29610;49.022;12.114;2023-02-20T09:09:21;98624.38;;;12.01;100.00
18795;BME280;29610;49.022;12.114;2023-02-20T09:11:49;98610.59;;;11.84;100.00
18795;BME280;29610;49.022;12.114;2023-02-20T09:14:18;98606.78;;;12.29;100.00
18795;BME280;29610;49.022;12.114;2023-02-20T09:16:51;98593.38;;;12.63;100.00
18795;BME280;29610;49.022;12.114;2023-02-20T09:19:19;98587.84;;;13.07;100.00
18795;BME280;29610;49.022;12.114;2023-02-20T09:21:50;98588.84;;;13.20;100.00
18795;BME280;29610;49.022;12.114;2023-02-20T09:24:20;98580.00;;;13.23;100.00
18795;BME280;29610;49.022;12.114;2023-02-20T09:26:49;98581.13;;;13.22;100.00
18795;BME280;29610;49.022;12.114;2023-02-20T09:29:18;98583.88;;;13.22;100.00
18795;BME280;29610;49.022;12.114;2023-02-20T09:31:46;98582.72;;;13.14;100.00
18795;BME280;29610;49.022;12.114;2023-02-20T09:34:15;98585.91;;;13.08;100.00
18795;BME280;29610;49.022;12.114;2023-02-20T09:36:44;98584.38;;;12.63;100.00
18795;BME280;29610;49.022;12.114;2023-02-20T09:39:12;98574.81;;;12.43;100.00
18795;BME280;29610;49.022;12.114;2023-02-20T09:42:06;98584.91;;;12.21;100.00
18795;BME280;29610;49.022;12.114;2023-02-20T09:44:52;98591.72;;;12.10;100.00
18795;BME280;29610;49.022;12.114;2023-02-20T09:47:41;98585.13;;;11.66;100.00
18795;BME280;29610;49.022;12.114;2023-02-20T09:50:15;98575.34;;;11.65;100.00
18795;BME280;29610;49.022;12.114;2023-02-20T09:52:53;98581.69;;;11.47;100.00
18795;BME280;29610;49.022;12.114;2023-02-20T09:55:33;98573.44;;;11.66;100.00
18795;BME280;29610;49.022;12.114;2023-02-20T09:58:06;98579.88;;;11.70;100.00
18795;BME280;29610;49.022;12.114;2023-02-20T10:00:45;98564.66;;;11.69;100.00
18795;BME280;29610;49.022;12.114;2023-02-20T10:03:23;98563.41;;;11.75;100.00
18795;BME280;29610;49.022;12.114;2023-02-20T10:05:55;98555.13;;;11.80;100.00
18795;BME280;29610;49.022;12.114;2023-02-20T10:08:24;98552.72;;;11.78;100.00
18795;BME280;29610;49.022;12.114;2023-02-20T10:10:57;98542.19;;;11.86;100.00
18795;BME280;29610;49.022;12.114;2023-02-20T10:13:46;98551.78;;;11.83;100.00
18795;BME280;29610;49.022;12.114;2023-02-20T10:16:31;98549.03;;;11.97;100.00
18795;BME280;29610;49.022;12.114;2023-02-20T10:19:15;98553.41;;;12.06;100.00
18795;BME280;29610;49.022;12.114;2023-02-20T10:22:04;98537.03;;;11.84;100.00
18795;BME280;29610;49.022;12.114;2023-02-20T10:24:54;98543.00;;;11.86;100.00
18795;BME280;29610;49.022;12.114;2023-02-20T10:27:37;98531.06;;;11.96;100.00
18795;BME280;29610;49.022;12.114;2023-02-20T10:30:13;98537.84;;;12.29;100.00
18795;BME280;29610;49.022;12.114;2023-02-20T10:32:51;98526.97;;;12.07;100.00
18795;BME280;29610;49.022;12.114;2023-02-20T10:35:29;98527.47;;;12.09;100.00
18795;BME280;29610;49.022;12.114;2023-02-20T10:38:06;98524.75;;;12.39;100.00
18795;BME280;29610;49.022;12.114;2023-02-20T10:40:41;98517.47;;;12.57;100.00
18795;BME280;29610;49.022;12.114;2023-02-20T10:43:18;98508.16;;;12.49;100.00
18795;BME280;29610;49.022;12.114;2023-02-20T10:45:59;98506.31;;;12.36;100.00
18795;BME280;29610;49.022;12.114;2023-02-20T10:48:33;98499.22;;;12.35;100.00
18795;BME280;29610;49.022;12.114;2023-02-20T10:51:08;98495.78;;;12.21;100.00
18795;BME280;29610;49.022;12.114;2023-02-20T10:53:47;98496.88;;;12.12;100.00
18795;BME280;29610;49.022;12.114;2023-02-20T10:56:23;98500.22;;;12.09;100.00
18795;BME280;29610;49.022;12.114;2023-02-20T10:59:00;98490.75;;;12.06;100.00
18795;BME280;29610;49.022;12.114;2023-02-20T11:01:35;98480.91;;;12.58;100.00
18795;BME280;29610;49.022;12.114;2023-02-20T11:04:11;98474.03;;;13.08;100.00
18795;BME280;29610;49.022;12.114;2023-02-20T11:06:45;98468.13;;;13.40;100.00
18795;BME280;29610;49.022;12.114;2023-02-20T11:09:14;98465.22;;;13.62;100.00
18795;BME280;29610;49.022;12.114;2023-02-20T11:11:46;98462.31;;;13.93;100.00
18795;BME280;29610;49.022;12.114;2023-02-20T11:14:20;98460.03;;;14.12;100.00
18795;BME280;29610;49.022;12.114;2023-02-20T11:17:10;98448.28;;;14.57;100.00
18795;BME280;29610;49.022;12.114;2023-02-20T11:19:45;98458.22;;;15.00;100.00
18795;BME280;29610;49.022;12.114;2023-02-20T11:22:16;98436.28;;;15.49;100.00
18795;BME280;29610;49.022;12.114;2023-02-20T11:24:46;98440.34;;;15.23;100.00
18795;BME280;29610;49.022;12.114;2023-02-20T11:27:18;98446.34;;;15.37;100.00
18795;BME280;29610;49.022;12.114;2023-02-20T11:29:53;98440.66;;;15.21;100.00
18795;BME280;29610;49.022;12.114;2023-02-20T11:32:34;98431.25;;;15.72;100.00
18795;BME280;29610;49.022;12.114;2023-02-20T11:35:34;98413.16;;;15.91;100.00
18795;BME280;29610;49.022;12.114;2023-02-20T11:38:33;98425.03;;;15.51;100.00
18795;BME280;29610;49.022;12.114;2023-02-20T11:41:30;98415.16;;;15.09;100.00
18795;BME280;29610;49.022;12.114;2023-02-20T11:44:29;98409.03;;;15.53;100.00
18795;BME280;29610;49.022;12.114;2023-02-20T11:47:22;98406.41;;;15.36;100.00
18795;BME280;29610;49.022;12.114;2023-02-20T11:50:14;98396.53;;;15.43;100.00
18795;BME280;29610;49.022;12.114;2023-02-20T11:53:02;98393.66;;;15.40;100.00
18795;BME280;29610;49.022;12.114;2023-02-20T11:55:32;98388.69;;;16.31;100.00
18795;BME280;29610;49.022;12.114;2023-02-20T11:58:02;98386.09;;;16.59;100.00
18795;BME280;29610;49.022;12.114;2023-02-20T12:00:44;98372.47;;;16.74;100.00
18795;BME280;29610;49.022;12.114;2023-02-20T12:03:20;98375.53;;;16.97;100.00
18795;BME280;29610;49.022;12.114;2023-02-20T12:05:51;98367.75;;;16.99;100.00
18795;BME280;29610;49.022;12.114;2023-02-20T12:08:42;98355.22;;;16.62;100.00
18795;BME280;29610;49.022;12.114;2023-02-20T12:11:18;98352.69;;;16.81;100.00
18795;BME280;29610;49.022;12.114;2023-02-20T12:13:50;98340.13;;;16.68;100.00
18795;BME280;29610;49.022;12.114;2023-02-20T12:16:35;98343.28;;;16.94;100.00
18795;BME280;29610;49.022;12.114;2023-02-20T12:19:13;98336.78;;;17.53;100.00
18795;BME280;29610;49.022;12.114;2023-02-20T12:22:00;98348.03;;;17.09;100.00
18795;BME280;29610;49.022;12.114;2023-02-20T12:25:15;98338.75;;;16.62;100.00
18795;BME280;29610;49.022;12.114;2023-02-20T12:28:02;98332.13;;;16.75;100.00
18795;BME280;29610;49.022;12.114;2023-02-20T12:30:53;98345.28;;;16.45;100.00
18795;BME280;29610;49.022;12.114;2023-02-20T12:33:45;98335.88;;;15.98;100.00
18795;BME280;29610;49.022;12.114;2023-02-20T12:36:30;98330.72;;;15.52;100.00
18795;BME280;29610;49.022;12.114;2023-02-20T12:39:11;98323.06;;;15.25;100.00
18795;BME280;29610;49.022;12.114;2023-02-20T12:42:04;98325.66;;;15.42;100.00
18795;BME280;29610;49.022;12.114;2023-02-20T12:44:57;98324.16;;;15.12;100.00
18795;BME280;29610;49.022;12.114;2023-02-20T12:47:33;98312.72;;;15.63;100.00
18795;BME280;29610;49.022;12.114;2023-02-20T12:50:29;98304.00;;;15.93;100.00
18795;BME280;29610;49.022;12.114;2023-02-20T12:53:22;98303.31;;;16.33;100.00
18795;BME280;29610;49.022;12.114;2023-02-20T12:56:10;98291.00;;;16.51;100.00
18795;BME280;29610;49.022;12.114;2023-02-20T12:58:49;98276.94;;;16.92;100.00
18795;BME280;29610;49.022;12.114;2023-02-20T13:01:23;98281.53;;;16.88;100.00
18795;BME280;29610;49.022;12.114;2023-02-20T13:04:22;98270.31;;;17.64;100.00
18795;BME280;29610;49.022;12.114;2023-02-20T13:07:02;98270.16;;;17.57;100.00
18795;BME280;29610;49.022;12.114;2023-02-20T13:09:36;98277.72;;;16.53;100.00
18795;BME280;29610;49.022;12.114;2023-02-20T13:12:15;98264.22;;;16.11;100.00
18795;BME280;29610;49.022;12.114;2023-02-20T13:14:59;98253.63;;;16.86;100.00
18795;BME280;29610;49.022;12.114;2023-02-20T13:17:40;98250.28;;;17.20;100.00
18795;BME280;29610;49.022;12.114;2023-02-20T13:20:18;98238.41;;;17.31;100.00
18795;BME280;29610;49.022;12.114;2023-02-20T13:23:02;98237.50;;;17.12;100.00
18795;BME280;29610;49.022;12.114;2023-02-20T13:25:41;98228.03;;;17.25;100.00
18795;BME280;29610;49.022;12.114;2023-02-20T13:28:36;98227.50;;;17.63;100.00
18795;BME280;29610;49.022;12.114;2023-02-20T13:31:15;98231.75;;;17.60;100.00
18795;BME280;29610;49.022;12.114;2023-02-20T13:33:47;98222.53;;;17.25;100.00
18795;BME280;29610;49.022;12.114;2023-02-20T13:36:38;98224.81;;;17.50;98.28